sensor_id;sensor_type;location;lat;lon;timestamp;temperature;humidity
1994;DHT22;998;49.906;10.908;2023-03-25T00:00:54;9.60;99.90
1994;DHT22;998;49.906;10.908;2023-03-25T00:03:23;9.60;99.90
1994;DHT22;998;49.906;10.908;2023-03-25T00:05:51;9.50;99.90
1994;DHT22;998;49.906;10.908;2023-03-25T00:08:20;9.50;99.90
1994;DHT22;998;49.906;10.908;2023-03-25T00:10:51;9.40;99.90
1994;DHT22;998;49.906;10.908;2023-03-25T00:13:19;9.40;99.90
1994;DHT22;998;49.906;10.908;2023-03-25T00:15:49;9.40;99.90
1994;DHT22;998;49.906;10.908;2023-03-25T00:18:18;9.40;99.90
1994;DHT22;998;49.906;10.908;2023-03-25T00:20:48;9.30;99.90
1994;DHT22;998;49.906;10.908;2023-03-25T00:23:16;9.40;99.90
1994;DHT22;998;49.906;10.908;2023-03-25T00:25:45;9.40;99.90
1994;DHT22;998;49.906;10.908;2023-03-25T00:28:13;9.40;99.90
1994;DHT22;998;49.906;10.908;2023-03-25T00:30:41;9.40;99.90
1994;DHT22;998;49.906;10.908;2023-03-25T00:33:09;9.40;99.90
1994;DHT22;998;49.906;10.908;2023-03-25T00:35:38;9.40;99.90
1994;DHT22;998;49.906;10.908;2023-03-25T00:38:09;9.40;99.90
1994;DHT22;998;49.906;10.908;2023-03-25T00:40:37;9.40;99.90
1994;DHT22;998;49.906;10.908;2023-03-25T00:43:06;9.30;99.90
1994;DHT22;998;49.906;10.908;2023-03-25T00:45:33;9.40;99.90
1994;DHT22;998;49.906;10.908;2023-03-25T00:48:01;9.40;99.90
1994;DHT22;998;49.906;10.908;2023-03-25T00:50:28;9.30;99.90
1994;DHT22;998;49.906;10.908;2023-03-25T00:52:56;9.30;99.90
1994;DHT22;998;49.906;10.908;2023-03-25T00:55:23;9.30;99.90
1994;DHT22;998;49.906;10.908;2023-03-25T00:57:50;9.30;99.90
1994;DHT22;998;49.906;10.908;2023-03-25T01:00:19;9.30;99.90
1994;DHT22;998;49.906;10.908;2023-03-25T01:02:48;9.20;99.90
1994;DHT22;998;49.906;10.908;2023-03-25T01:05:18;9.10;99.90
1994;DHT22;998;49.906;10.908;2023-03-25T01:07:47;9.10;99.90
1994;DHT22;998;49.906;10.908;2023-03-25T01:10:16;9.10;99.90
1994;DHT22;998;49.906;10.908;2023-03-25T01:12:44;9.10;99.90
1994;DHT22;998;49.906;10.908;2023-03-25T01:15:11;9.10;99.90
1994;DHT22;998;49.906;10.908;2023-03-25T01:17:40;9.10;99.90
1994;DHT22;998;49.906;10.908;2023-03-25T01:20:08;9.00;99.90
1994;DHT22;998;49.906;10.908;2023-03-25T01:22:36;9.00;99.90
1994;DHT22;998;49.906;10.908;2023-03-25T01:25:03;9.00;99.90
1994;DHT22;998;49.906;10.908;2023-03-25T01:27:31;9.10;99.90
1994;DHT22;998;49.906;10.908;2023-03-25T01:29:58;9.10;99.90
1994;DHT22;998;49.906;10.908;2023-03-25T01:32:28;9.10;99.90
1994;DHT22;998;49.906;10.908;2023-03-25T01:34:56;9.10;99.90
1994;DHT22;998;49.906;10.908;2023-03-25T01:37:24;9.10;99.90
1994;DHT22;998;49.906;10.908;2023-03-25T01:39:52;9.10;99.90
1994;DHT22;998;49.906;10.908;2023-03-25T01:42:19;9.10;99.90
1994;DHT22;998;49.906;10.908;2023-03-25T01:45:13;9.10;99.90
1994;DHT22;998;49.906;10.908;2023-03-25T01:47:42;9.10;99.90
1994;DHT22;998;49.906;10.908;2023-03-25T01:50:11;9.00;99.90
1994;DHT22;998;49.906;10.908;2023-03-25T01:52:42;9.00;99.90
1994;DHT22;998;49.906;10.908;2023-03-25T01:55:11;9.00;99.90
1994;DHT22;998;49.906;10.908;2023-03-25T01:57:40;9.10;99.90
1994;DHT22;998;49.906;10.908;2023-03-25T02:00:12;9.00;99.90
1994;DHT22;998;49.906;10.908;2023-03-25T02:02:41;9.00;99.90
1994;DHT22;998;49.906;10.908;2023-03-25T02:05:17;9.10;99.90
1994;DHT22;998;49.906;10.908;2023-03-25T02:07:48;9.10;99.90
1994;DHT22;998;49.906;10.908;2023-03-25T02:10:16;9.00;99.90
1994;DHT22;998;49.906;10.908;2023-03-25T02:12:44;9.00;99.90
1994;DHT22;998;49.906;10.908;2023-03-25T02:15:14;8.90;99.90
1994;DHT22;998;49.906;10.908;2023-03-25T02:18:04;8.90;99.90
1994;DHT22;998;49.906;10.908;2023-03-25T02:21:04;8.90;99.90
1994;DHT22;998;49.906;10.908;2023-03-25T02:27:09;8.90;99.90
1994;DHT22;998;49.906;10.908;2023-03-25T02:30:13;8.90;99.90
1994;DHT22;998;49.906;10.908;2023-03-25T02:36:10;8.90;99.90
1994;DHT22;998;49.906;10.908;2023-03-25T02:38:47;8.90;99.90
1994;DHT22;998;49.906;10.908;2023-03-25T02:41:20;8.90;99.90
1994;DHT22;998;49.906;10.908;2023-03-25T02:43:53;8.90;99.90
1994;DHT22;998;49.906;10.908;2023-03-25T02:46:23;8.90;99.90
1994;DHT22;998;49.906;10.908;2023-03-25T02:48:55;9.10;99.90
1994;DHT22;998;49.906;10.908;2023-03-25T02:51:27;9.10;99.90
1994;DHT22;998;49.906;10.908;2023-03-25T02:54:00;9.10;99.90
1994;DHT22;998;49.906;10.908;2023-03-25T02:56:29;9.10;99.90
1994;DHT22;998;49.906;10.908;2023-03-25T02:58:59;9.20;99.90
1994;DHT22;998;49.906;10.908;2023-03-25T03:01:27;9.20;99.90
1994;DHT22;998;49.906;10.908;2023-03-25T03:03:55;9.20;99.90
1994;DHT22;998;49.906;10.908;2023-03-25T03:06:23;9.20;99.90
1994;DHT22;998;49.906;10.908;2023-03-25T03:09:04;9.10;99.90
1994;DHT22;998;49.906;10.908;2023-03-25T03:11:39;9.10;99.90
1994;DHT22;998;49.906;10.908;2023-03-25T03:14:24;9.10;99.90
1994;DHT22;998;49.906;10.908;2023-03-25T03:16:58;9.10;99.90
1994;DHT22;998;49.906;10.908;2023-03-25T03:19:35;9.00;99.90
1994;DHT22;998;49.906;10.908;2023-03-25T03:22:12;9.00;99.90
1994;DHT22;998;49.906;10.908;2023-03-25T03:24:47;9.00;99.90
1994;DHT22;998;49.906;10.908;2023-03-25T03:27:20;9.00;99.90
1994;DHT22;998;49.906;10.908;2023-03-25T03:29:56;8.90;99.90
1994;DHT22;998;49.906;10.908;2023-03-25T03:32:29;8.90;99.90
1994;DHT22;998;49.906;10.908;2023-03-25T03:35:02;8.90;99.90
1994;DHT22;998;49.906;10.908;2023-03-25T03:37:34;8.90;99.90
1994;DHT22;998;49.906;10.908;2023-03-25T03:40:06;8.90;99.90
1994;DHT22;998;49.906;10.908;2023-03-25T03:42:39;8.90;99.90
1994;DHT22;998;49.906;10.908;2023-03-25T03:45:12;9.00;99.90
1994;DHT22;998;49.906;10.908;2023-03-25T03:47:44;8.90;99.90
1994;DHT22;998;49.906;10.908;2023-03-25T03:50:16;8.90;99.90
1994;DHT22;998;49.906;10.908;2023-03-25T03:52:49;8.90;99.90
1994;DHT22;998;49.906;10.908;2023-03-25T03:55:21;8.90;99.90
1994;DHT22;998;49.906;10.908;2023-03-25T03:57:54;8.80;99.90
1994;DHT22;998;49.906;10.908;2023-03-25T04:00:26;8.70;99.90
1994;DHT22;998;49.906;10.908;2023-03-25T04:03:00;8.70;99.90
1994;DHT22;998;49.906;10.908;2023-03-25T04:05:29;8.70;99.90
1994;DHT22;998;49.906;10.908;2023-03-25T04:08:01;8.70;99.90
1994;DHT22;998;49.906;10.908;2023-03-25T04:10:35;8.70;99.90
1994;DHT22;998;49.906;10.908;2023-03-25T04:13:08;8.80;99.90
1994;DHT22;998;49.906;10.908;2023-03-25T04:15:36;8.90;99.90
1994;DHT22;998;49.906;10.908;2023-03-25T04:18:03;8.70;99.90
1994;DHT22;998;49.906;10.908;2023-03-25T04:20:32;8.70;99.90
1994;DHT22;998;49.906;10.908;2023-03-25T04:23:01;8.80;99.90
1994;DHT22;998;49.906;10.908;2023-03-25T04:25:31;8.80;99.90
1994;DHT22;998;49.906;10.908;2023-03-25T04:27:58;8.90;99.90
1994;DHT22;998;49.906;10.908;2023-03-25T04:30:27;8.90;99.90
1994;DHT22;998;49.906;10.908;2023-03-25T04:32:54;8.80;99.90
1994;DHT22;998;49.906;10.908;2023-03-25T04:35:22;8.80;99.90
1994;DHT22;998;49.906;10.908;2023-03-25T04:37:50;8.80;99.90
1994;DHT22;998;49.906;10.908;2023-03-25T04:40:19;8.80;99.90
1994;DHT22;998;49.906;10.908;2023-03-25T04:42:48;8.90;99.90
1994;DHT22;998;49.906;10.908;2023-03-25T04:45:16;9.00;99.90
1994;DHT22;998;49.906;10.908;2023-03-25T04:47:45;9.00;99.90
1994;DHT22;998;49.906;10.908;2023-03-25T04:50:19;9.00;99.90
1994;DHT22;998;49.906;10.908;2023-03-25T04:52:47;9.00;99.90
1994;DHT22;998;49.906;10.908;2023-03-25T04:55:14;9.00;99.90
1994;DHT22;998;49.906;10.908;2023-03-25T04:57:44;8.90;99.90
1994;DHT22;998;49.906;10.908;2023-03-25T05:00:16;8.90;99.90
1994;DHT22;998;49.906;10.908;2023-03-25T05:02:44;9.00;99.90
1994;DHT22;998;49.906;10.908;2023-03-25T05:05:12;8.90;99.90
1994;DHT22;998;49.906;10.908;2023-03-25T05:07:44;8.80;99.90
1994;DHT22;998;49.906;10.908;2023-03-25T05:10:14;8.80;99.90
1994;DHT22;998;49.906;10.908;2023-03-25T05:12:42;8.90;99.90
1994;DHT22;998;49.906;10.908;2023-03-25T05:15:10;9.00;99.90
1994;DHT22;998;49.906;10.908;2023-03-25T05:17:39;8.90;99.90
1994;DHT22;998;49.906;10.908;2023-03-25T05:20:09;8.90;99.90
1994;DHT22;998;49.906;10.908;2023-03-25T05:22:37;8.80;99.90
1994;DHT22;998;49.906;10.908;2023-03-25T05:25:05;8.80;99.90
1994;DHT22;998;49.906;10.908;2023-03-25T05:27:33;8.90;99.90
1994;DHT22;998;49.906;10.908;2023-03-25T05:30:01;8.90;99.90
1994;DHT22;998;49.906;10.908;2023-03-25T05:32:29;8.90;99.90
1994;DHT22;998;49.906;10.908;2023-03-25T05:35:00;8.80;99.90
1994;DHT22;998;49.906;10.908;2023-03-25T05:37:27;8.70;99.90
1994;DHT22;998;49.906;10.908;2023-03-25T05:39:55;8.70;99.90
1994;DHT22;998;49.906;10.908;2023-03-25T05:42:23;8.80;99.90
1994;DHT22;998;49.906;10.908;2023-03-25T05:44:50;8.80;99.90
1994;DHT22;998;49.906;10.908;2023-03-25T05:47:18;8.70;99.90
1994;DHT22;998;49.906;10.908;2023-03-25T05:49:47;8.60;99.90
1994;DHT22;998;49.906;10.908;2023-03-25T05:52:16;8.50;99.90
1994;DHT22;998;49.906;10.908;2023-03-25T05:54:45;8.60;99.90
1994;DHT22;998;49.906;10.908;2023-03-25T05:57:15;8.50;99.90
1994;DHT22;998;49.906;10.908;2023-03-25T05:59:42;8.50;99.90
1994;DHT22;998;49.906;10.908;2023-03-25T06:02:12;8.50;99.90
1994;DHT22;998;49.906;10.908;2023-03-25T06:04:40;8.40;99.90
1994;DHT22;998;49.906;10.908;2023-03-25T06:07:08;8.50;99.90
1994;DHT22;998;49.906;10.908;2023-03-25T06:09:41;8.50;99.90
1994;DHT22;998;49.906;10.908;2023-03-25T06:12:12;8.50;99.90
1994;DHT22;998;49.906;10.908;2023-03-25T06:14:40;8.40;99.90
1994;DHT22;998;49.906;10.908;2023-03-25T06:17:10;8.50;99.90
1994;DHT22;998;49.906;10.908;2023-03-25T06:19:38;8.50;99.90
1994;DHT22;998;49.906;10.908;2023-03-25T06:22:06;8.50;99.90
1994;DHT22;998;49.906;10.908;2023-03-25T06:24:34;8.50;99.90
1994;DHT22;998;49.906;10.908;2023-03-25T06:27:05;8.50;99.90
1994;DHT22;998;49.906;10.908;2023-03-25T06:29:33;8.50;99.90
1994;DHT22;998;49.906;10.908;2023-03-25T06:32:01;8.40;99.90
1994;DHT22;998;49.906;10.908;2023-03-25T06:34:29;8.40;99.90
1994;DHT22;998;49.906;10.908;2023-03-25T06:36:57;8.40;99.90
1994;DHT22;998;49.906;10.908;2023-03-25T06:39:25;8.40;99.90
1994;DHT22;998;49.906;10.908;2023-03-25T06:41:52;8.50;99.90
1994;DHT22;998;49.906;10.908;2023-03-25T06:44:21;8.40;99.90
1994;DHT22;998;49.906;10.908;2023-03-25T06:46:49;8.50;99.90
1994;DHT22;998;49.906;10.908;2023-03-25T06:49:16;8.60;99.90
1994;DHT22;998;49.906;10.908;2023-03-25T06:51:43;8.60;99.90
1994;DHT22;998;49.906;10.908;2023-03-25T06:54:11;8.70;99.90
1994;DHT22;998;49.906;10.908;2023-03-25T06:56:38;8.70;99.90
1994;DHT22;998;49.906;10.908;2023-03-25T06:59:05;8.80;99.90
1994;DHT22;998;49.906;10.908;2023-03-25T07:01:34;8.90;99.90
1994;DHT22;998;49.906;10.908;2023-03-25T07:04:02;8.90;99.90
1994;DHT22;998;49.906;10.908;2023-03-25T07:06:30;8.80;99.90
1994;DHT22;998;49.906;10.908;2023-03-25T07:08:57;8.80;99.90
1994;DHT22;998;49.906;10.908;2023-03-25T07:11:27;8.80;99.90
1994;DHT22;998;49.906;10.908;2023-03-25T07:13:55;8.70;99.90
1994;DHT22;998;49.906;10.908;2023-03-25T07:16:23;8.90;99.90
1994;DHT22;998;49.906;10.908;2023-03-25T07:18:52;8.70;99.90
1994;DHT22;998;49.906;10.908;2023-03-25T07:21:21;8.70;99.90
1994;DHT22;998;49.906;10.908;2023-03-25T07:23:49;8.60;99.90
1994;DHT22;998;49.906;10.908;2023-03-25T07:26:16;8.60;99.90
1994;DHT22;998;49.906;10.908;2023-03-25T07:28:44;8.60;99.90
1994;DHT22;998;49.906;10.908;2023-03-25T07:31:14;8.70;99.90
1994;DHT22;998;49.906;10.908;2023-03-25T07:33:41;8.60;99.90
1994;DHT22;998;49.906;10.908;2023-03-25T07:36:11;8.60;99.90
1994;DHT22;998;49.906;10.908;2023-03-25T07:38:39;8.70;99.90
1994;DHT22;998;49.906;10.908;2023-03-25T07:41:07;8.80;99.90
1994;DHT22;998;49.906;10.908;2023-03-25T07:43:35;8.80;99.90
1994;DHT22;998;49.906;10.908;2023-03-25T07:46:03;8.80;99.90
1994;DHT22;998;49.906;10.908;2023-03-25T07:48:31;8.80;99.90
1994;DHT22;998;49.906;10.908;2023-03-25T07:50:58;8.80;99.90
1994;DHT22;998;49.906;10.908;2023-03-25T07:53:27;8.90;99.90
1994;DHT22;998;49.906;10.908;2023-03-25T07:55:54;9.00;99.90
1994;DHT22;998;49.906;10.908;2023-03-25T07:58:22;9.10;99.90
1994;DHT22;998;49.906;10.908;2023-03-25T08:00:50;9.10;99.90
1994;DHT22;998;49.906;10.908;2023-03-25T08:03:18;9.10;99.90
1994;DHT22;998;49.906;10.908;2023-03-25T08:05:46;9.20;99.90
1994;DHT22;998;49.906;10.908;2023-03-25T08:08:13;9.20;99.90
1994;DHT22;998;49.906;10.908;2023-03-25T08:10:43;9.20;99.90
1994;DHT22;998;49.906;10.908;2023-03-25T08:13:12;9.30;99.90
1994;DHT22;998;49.906;10.908;2023-03-25T08:15:40;9.30;99.90
1994;DHT22;998;49.906;10.908;2023-03-25T08:18:07;9.40;99.90
1994;DHT22;998;49.906;10.908;2023-03-25T08:20:35;9.30;99.90
1994;DHT22;998;49.906;10.908;2023-03-25T08:23:02;9.40;99.90
1994;DHT22;998;49.906;10.908;2023-03-25T08:25:35;9.40;99.90
1994;DHT22;998;49.906;10.908;2023-03-25T08:28:04;9.50;99.90
1994;DHT22;998;49.906;10.908;2023-03-25T08:30:32;9.50;99.90
1994;DHT22;998;49.906;10.908;2023-03-25T08:33:03;9.60;99.90
1994;DHT22;998;49.906;10.908;2023-03-25T08:35:32;9.50;99.90
1994;DHT22;998;49.906;10.908;2023-03-25T08:38:00;9.50;99.90
1994;DHT22;998;49.906;10.908;2023-03-25T08:40:29;9.40;99.90
1994;DHT22;998;49.906;10.908;2023-03-25T08:42:57;9.40;99.90
1994;DHT22;998;49.906;10.908;2023-03-25T08:45:26;9.50;99.90
1994;DHT22;998;49.906;10.908;2023-03-25T08:47:53;9.40;99.90
1994;DHT22;998;49.906;10.908;2023-03-25T08:50:21;9.50;99.90
1994;DHT22;998;49.906;10.908;2023-03-25T08:52:48;9.40;99.90
1994;DHT22;998;49.906;10.908;2023-03-25T08:55:18;9.30;99.90
1994;DHT22;998;49.906;10.908;2023-03-25T08:57:45;9.30;99.90
1994;DHT22;998;49.906;10.908;2023-03-25T09:00:13;9.30;99.90
1994;DHT22;998;49.906;10.908;2023-03-25T09:02:43;9.30;99.90
1994;DHT22;998;49.906;10.908;2023-03-25T09:05:11;9.30;99.90
1994;DHT22;998;49.906;10.908;2023-03-25T09:07:40;9.40;99.90
1994;DHT22;998;49.906;10.908;2023-03-25T09:10:09;9.40;99.90
1994;DHT22;998;49.906;10.908;2023-03-25T09:12:37;9.50;99.90
1994;DHT22;998;49.906;10.908;2023-03-25T09:15:06;9.50;99.90
1994;DHT22;998;49.906;10.908;2023-03-25T09:17:34;9.50;99.90
1994;DHT22;998;49.906;10.908;2023-03-25T09:20:03;9.60;99.90
1994;DHT22;998;49.906;10.908;2023-03-25T09:22:33;9.70;99.90
1994;DHT22;998;49.906;10.908;2023-03-25T09:25:00;9.80;99.90
1994;DHT22;998;49.906;10.908;2023-03-25T09:27:27;9.90;99.90
1994;DHT22;998;49.906;10.908;2023-03-25T09:29:55;10.00;99.90
1994;DHT22;998;49.906;10.908;2023-03-25T09:32:22;10.10;99.90
1994;DHT22;998;49.906;10.908;2023-03-25T09:34:50;10.20;99.90
1994;DHT22;998;49.906;10.908;2023-03-25T09:37:19;10.20;99.90
1994;DHT22;998;49.906;10.908;2023-03-25T09:39:46;10.30;99.90
1994;DHT22;998;49.906;10.908;2023-03-25T09:42:36;10.20;99.90
1994;DHT22;998;49.906;10.908;2023-03-25T09:45:15;10.30;99.90
1994;DHT22;998;49.906;10.908;2023-03-25T09:47:52;10.30;99.90
1994;DHT22;998;49.906;10.908;2023-03-25T09:50:22;10.30;99.90
1994;DHT22;998;49.906;10.908;2023-03-25T09:52:57;10.30;99.90
1994;DHT22;998;49.906;10.908;2023-03-25T09:55:30;10.30;99.90
1994;DHT22;998;49.906;10.908;2023-03-25T09:58:03;10.40;99.90
1994;DHT22;998;49.906;10.908;2023-03-25T10:00:36;10.40;99.90
1994;DHT22;998;49.906;10.908;2023-03-25T10:03:15;10.40;99.90
1994;DHT22;998;49.906;10.908;2023-03-25T10:06:14;10.50;99.90
1994;DHT22;998;49.906;10.908;2023-03-25T10:08:55;10.60;99.90
1994;DHT22;998;49.906;10.908;2023-03-25T10:11:34;10.60;99.90
1994;DHT22;998;49.906;10.908;2023-03-25T10:14:07;10.60;99.90
1994;DHT22;998;49.906;10.908;2023-03-25T10:16:44;10.60;99.90
1994;DHT22;998;49.906;10.908;2023-03-25T10:19:25;10.60;99.90
1994;DHT22;998;49.906;10.908;2023-03-25T10:21:59;10.60;99.90
1994;DHT22;998;49.906;10.908;2023-03-25T10:24:33;10.70;99.90
1994;DHT22;998;49.906;10.908;2023-03-25T10:27:03;10.70;99.90
1994;DHT22;998;49.906;10.908;2023-03-25T10:29:33;10.80;99.90
1994;DHT22;998;49.906;10.908;2023-03-25T10:32:05;10.90;99.90
1994;DHT22;998;49.906;10.908;2023-03-25T10:34:36;10.90;99.90
1994;DHT22;998;49.906;10.908;2023-03-25T10:37:08;11.10;99.90
1994;DHT22;998;49.906;10.908;2023-03-25T10:39:41;11.40;99.90
1994;DHT22;998;49.906;10.908;2023-03-25T10:42:18;11.40;99.90
1994;DHT22;998;49.906;10.908;2023-03-25T10:44:47;11.40;99.90
1994;DHT22;998;49.906;10.908;2023-03-25T10:47:17;11.40;99.90
1994;DHT22;998;49.906;10.908;2023-03-25T10:49:46;11.30;99.90
1994;DHT22;998;49.906;10.908;2023-03-25T10:52:14;11.20;99.90
1994;DHT22;998;49.906;10.908;2023-03-25T10:54:46;11.00;99.90
1994;DHT22;998;49.906;10.908;2023-03-25T10:57:19;10.40;99.90
1994;DHT22;998;49.906;10.908;2023-03-25T10:59:57;10.30;99.90
1994;DHT22;998;49.906;10.908;2023-03-25T11:02:28;10.20;99.90
1994;DHT22;998;49.906;10.908;2023-03-25T11:04:59;10.40;99.90
1994;DHT22;998;49.906;10.908;2023-03-25T11:07:31;10.60;99.90
1994;DHT22;998;49.906;10.908;2023-03-25T11:10:17;10.60;99.90
1994;DHT22;998;49.906;10.908;2023-03-25T11:12:45;10.60;99.90
1994;DHT22;998;49.906;10.908;2023-03-25T11:15:20;10.80;99.90
1994;DHT22;998;49.906;10.908;2023-03-25T11:17:57;10.90;99.90
1994;DHT22;998;49.906;10.908;2023-03-25T11:20:27;11.10;99.90
1994;DHT22;998;49.906;10.908;2023-03-25T11:23:03;11.30;99.90
1994;DHT22;998;49.906;10.908;2023-03-25T11:25:36;11.40;99.90
1994;DHT22;998;49.906;10.908;2023-03-25T11:28:11;11.50;99.90
1994;DHT22;998;49.906;10.908;2023-03-25T11:31:07;11.60;99.90
1994;DHT22;998;49.906;10.908;2023-03-25T11:33:36;11.40;99.90
1994;DHT22;998;49.906;10.908;2023-03-25T11:36:12;11.30;99.90
1994;DHT22;998;49.906;10.908;2023-03-25T11:38:39;11.10;99.90
1994;DHT22;998;49.906;10.908;2023-03-25T11:41:10;11.10;99.90
1994;DHT22;998;49.906;10.908;2023-03-25T11:43:39;10.80;99.90
1994;DHT22;998;49.906;10.908;2023-03-25T11:46:08;10.70;99.90
1994;DHT22;998;49.906;10.908;2023-03-25T11:48:37;10.60;99.90
1994;DHT22;998;49.906;10.908;2023-03-25T11:51:10;10.50;99.90
1994;DHT22;998;49.906;10.908;2023-03-25T11:53:43;10.50;99.90
1994;DHT22;998;49.906;10.908;2023-03-25T11:56:16;10.50;99.90
1994;DHT22;998;49.906;10.908;2023-03-25T11:58:45;10.60;99.90
1994;DHT22;998;49.906;10.908;2023-03-25T12:01:22;10.60;99.90
1994;DHT22;998;49.906;10.908;2023-03-25T12:03:50;10.70;99.90
1994;DHT22;998;49.906;10.908;2023-03-25T12:06:20;10.70;99.90
1994;DHT22;998;49.906;10.908;2023-03-25T12:08:50;10.70;99.90
1994;DHT22;998;49.906;10.908;2023-03-25T12:11:21;10.60;99.90
1994;DHT22;998;49.906;10.908;2023-03-25T12:14:13;10.90;99.90
1994;DHT22;998;49.906;10.908;2023-03-25T12:16:44;11.00;99.90
1994;DHT22;998;49.906;10.908;2023-03-25T12:19:20;11.40;99.90
1994;DHT22;998;49.906;10.908;2023-03-25T12:22:08;11.60;99.90
1994;DHT22;998;49.906;10.908;2023-03-25T12:25:03;11.40;99.90
1994;DHT22;998;49.906;10.908;2023-03-25T12:27:41;11.30;99.90
1994;DHT22;998;49.906;10.908;2023-03-25T12:30:20;11.20;99.90
1994;DHT22;998;49.906;10.908;2023-03-25T12:32:59;11.00;99.90
1994;DHT22;998;49.906;10.908;2023-03-25T12:35:36;10.70;99.90
1994;DHT22;998;49.906;10.908;2023-03-25T12:38:20;10.50;99.90
1994;DHT22;998;49.906;10.908;2023-03-25T12:43:53;10.20;99.90
1994;DHT22;998;49.906;10.908;2023-03-25T12:46:34;10.10;99.90
1994;DHT22;998;49.906;10.908;2023-03-25T12:49:14;10.60;99.90
1994;DHT22;998;49.906;10.908;2023-03-25T12:51:50;11.20;99.90
1994;DHT22;998;49.906;10.908;2023-03-25T12:54:30;11.80;99.90
1994;DHT22;998;49.906;10.908;2023-03-25T12:57:08;12.20;99.90
1994;DHT22;998;49.906;10.908;2023-03-25T12:59:53;12.70;99.90
1994;DHT22;998;49.906;10.908;2023-03-25T13:02:49;13.20;99.90
1994;DHT22;998;49.906;10.908;2023-03-25T13:05:28;13.40;99.90
1994;DHT22;998;49.906;10.908;2023-03-25T13:08:00;13.50;99.90
1994;DHT22;998;49.906;10.908;2023-03-25T13:10:30;13.30;99.90
1994;DHT22;998;49.906;10.908;2023-03-25T13:13:02;12.90;99.90
1994;DHT22;998;49.906;10.908;2023-03-25T13:15:37;12.50;99.90
1994;DHT22;998;49.906;10.908;2023-03-25T13:18:10;12.20;99.90
1994;DHT22;998;49.906;10.908;2023-03-25T13:20:42;11.90;99.90
1994;DHT22;998;49.906;10.908;2023-03-25T13:23:15;11.70;99.90
1994;DHT22;998;49.906;10.908;2023-03-25T13:25:49;11.60;99.90
1994;DHT22;998;49.906;10.908;2023-03-25T13:28:21;11.20;99.90
1994;DHT22;998;49.906;10.908;2023-03-25T13:30:53;11.20;99.90
1994;DHT22;998;49.906;10.908;2023-03-25T13:33:24;10.90;99.90
1994;DHT22;998;49.906;10.908;2023-03-25T13:35:56;10.30;99.90
1994;DHT22;998;49.906;10.908;2023-03-25T13:38:30;9.80;99.90
1994;DHT22;998;49.906;10.908;2023-03-25T13:41:08;9.80;99.90
1994;DHT22;998;49.906;10.908;2023-03-25T13:43:44;10.40;99.90
1994;DHT22;998;49.906;10.908;2023-03-25T13:46:20;11.20;99.90
1994;DHT22;998;49.906;10.908;2023-03-25T13:48:53;11.70;99.90
1994;DHT22;998;49.906;10.908;2023-03-25T13:51:21;11.70;99.90
1994;DHT22;998;49.906;10.908;2023-03-25T13:53:52;11.80;99.90
1994;DHT22;998;49.906;10.908;2023-03-25T13:56:56;12.20;99.90
1994;DHT22;998;49.906;10.908;2023-03-25T14:00:02;12.10;99.90
1994;DHT22;998;49.906;10.908;2023-03-25T14:05:52;12.70;99.90
1994;DHT22;998;49.906;10.908;2023-03-25T14:08:35;12.70;99.90
1994;DHT22;998;49.906;10.908;2023-03-25T14:11:20;12.90;99.90
1994;DHT22;998;49.906;10.908;2023-03-25T14:13:52;12.70;99.90
1994;DHT22;998;49.906;10.908;2023-03-25T14:16:23;13.00;99.90
1994;DHT22;998;49.906;10.908;2023-03-25T14:18:57;13.30;99.90
1994;DHT22;998;49.906;10.908;2023-03-25T14:21:31;13.40;99.90
1994;DHT22;998;49.906;10.908;2023-03-25T14:24:02;13.60;99.90
1994;DHT22;998;49.906;10.908;2023-03-25T14:26:32;13.20;99.90
1994;DHT22;998;49.906;10.908;2023-03-25T14:29:07;13.40;99.90
1994;DHT22;998;49.906;10.908;2023-03-25T14:31:35;13.60;99.90
1994;DHT22;998;49.906;10.908;2023-03-25T14:34:24;13.30;99.90
1994;DHT22;998;49.906;10.908;2023-03-25T14:37:22;13.50;99.90
1994;DHT22;998;49.906;10.908;2023-03-25T14:39:53;13.50;99.90
1994;DHT22;998;49.906;10.908;2023-03-25T14:42:30;13.20;99.90
1994;DHT22;998;49.906;10.908;2023-03-25T14:48:24;13.00;99.90
1994;DHT22;998;49.906;10.908;2023-03-25T14:51:41;12.80;99.90
1994;DHT22;998;49.906;10.908;2023-03-25T14:54:27;12.60;99.90
1994;DHT22;998;49.906;10.908;2023-03-25T14:57:00;12.50;99.90
1994;DHT22;998;49.906;10.908;2023-03-25T14:59:34;12.50;99.90
1994;DHT22;998;49.906;10.908;2023-03-25T15:02:07;12.50;99.90
1994;DHT22;998;49.906;10.908;2023-03-25T15:04:36;12.50;99.90
1994;DHT22;998;49.906;10.908;2023-03-25T15:07:10;12.60;99.90
1994;DHT22;998;49.906;10.908;2023-03-25T15:09:48;12.60;99.90
1994;DHT22;998;49.906;10.908;2023-03-25T15:12:20;12.80;99.90
1994;DHT22;998;49.906;10.908;2023-03-25T15:14:54;12.80;99.90
1994;DHT22;998;49.906;10.908;2023-03-25T15:17:43;12.70;99.90
1994;DHT22;998;49.906;10.908;2023-03-25T15:23:26;12.40;99.90
1994;DHT22;998;49.906;10.908;2023-03-25T15:25:56;12.20;99.90
1994;DHT22;998;49.906;10.908;2023-03-25T15:28:37;12.50;99.90
1994;DHT22;998;49.906;10.908;2023-03-25T15:31:19;12.80;99.90
1994;DHT22;998;49.906;10.908;2023-03-25T15:37:07;12.80;99.90
1994;DHT22;998;49.906;10.908;2023-03-25T15:39:59;12.70;99.90
1994;DHT22;998;49.906;10.908;2023-03-25T15:42:38;12.50;99.90
1994;DHT22;998;49.906;10.908;2023-03-25T15:45:37;12.20;99.90
1994;DHT22;998;49.906;10.908;2023-03-25T15:48:31;12.30;99.90
1994;DHT22;998;49.906;10.908;2023-03-25T15:51:18;12.70;99.90
1994;DHT22;998;49.906;10.908;2023-03-25T15:57:00;12.90;99.90
1994;DHT22;998;49.906;10.908;2023-03-25T15:59:34;12.90;99.90
1994;DHT22;998;49.906;10.908;2023-03-25T16:02:15;13.00;99.90
1994;DHT22;998;49.906;10.908;2023-03-25T16:04:48;12.90;99.90
1994;DHT22;998;49.906;10.908;2023-03-25T16:07:19;12.90;99.90
1994;DHT22;998;49.906;10.908;2023-03-25T16:09:49;13.00;99.90
1994;DHT22;998;49.906;10.908;2023-03-25T16:12:20;13.00;99.90
1994;DHT22;998;49.906;10.908;2023-03-25T16:14:49;13.10;99.90
1994;DHT22;998;49.906;10.908;2023-03-25T16:17:18;13.10;99.90
1994;DHT22;998;49.906;10.908;2023-03-25T16:19:49;13.30;99.90
1994;DHT22;998;49.906;10.908;2023-03-25T16:22:22;13.40;99.90
1994;DHT22;998;49.906;10.908;2023-03-25T16:24:53;13.30;99.90
1994;DHT22;998;49.906;10.908;2023-03-25T16:27:28;13.20;99.90
1994;DHT22;998;49.906;10.908;2023-03-25T16:29:56;13.20;99.90
1994;DHT22;998;49.906;10.908;2023-03-25T16:32:25;13.20;99.90
1994;DHT22;998;49.906;10.908;2023-03-25T16:34:57;13.10;99.90
1994;DHT22;998;49.906;10.908;2023-03-25T16:37:24;13.10;99.90
1994;DHT22;998;49.906;10.908;2023-03-25T16:39:54;13.10;99.90
1994;DHT22;998;49.906;10.908;2023-03-25T16:42:27;13.10;99.90
1994;DHT22;998;49.906;10.908;2023-03-25T16:44:57;13.20;99.90
1994;DHT22;998;49.906;10.908;2023-03-25T16:47:25;13.20;99.90
1994;DHT22;998;49.906;10.908;2023-03-25T16:49:54;13.10;99.90
1994;DHT22;998;49.906;10.908;2023-03-25T16:52:26;13.00;99.90
1994;DHT22;998;49.906;10.908;2023-03-25T16:57:55;13.00;99.90
1994;DHT22;998;49.906;10.908;2023-03-25T17:00:24;12.90;99.90
1994;DHT22;998;49.906;10.908;2023-03-25T17:02:51;12.80;99.90
1994;DHT22;998;49.906;10.908;2023-03-25T17:05:21;12.60;99.90
1994;DHT22;998;49.906;10.908;2023-03-25T17:07:55;12.70;99.90
1994;DHT22;998;49.906;10.908;2023-03-25T17:10:25;12.70;99.90
1994;DHT22;998;49.906;10.908;2023-03-25T17:12:56;12.70;99.90